Time;durP1;ratioP1;P1;durP2;ratioP2;P2;SDS_P1;SDS_P2;PMS_P1;PMS_P2;Temp;Humidity;BMP_temperature;BMP_pressure;BME280_temperature;BME280_humidity;BME280_pressure;Samples;Min_cycle;Max_cycle;Signal;HPM_P1;HPM_P2
2022/09/06 04:03:26;;;;;;;4.40;3.60;;;;;;;8.03;95.93;102232.50;5479083;23;20509;-72
2022/09/06 04:06:17;;;;;;;5.23;3.37;;;;;;;7.95;94.98;102213.66;4966862;28;20053;-69
2022/09/06 04:08:43;;;;;;;5.90;4.53;;;;;;;8.07;95.10;102223.38;4973384;28;20385;-69
2022/09/06 04:11:09;;;;;;;5.43;3.77;;;;;;;8.03;94.20;102205.13;4973935;28;20045;-70
2022/09/06 04:13:35;;;;;;;3.90;3.50;;;;;;;8.07;94.03;102209.25;4939816;28;20039;-71
2022/09/06 04:16:02;;;;;;;3.63;3.27;;;;;;;8.11;94.32;102205.44;4972924;28;20489;-72
2022/09/06 04:18:28;;;;;;;4.73;3.07;;;;;;;8.25;93.47;102223.84;4973186;28;20034;-71
2022/09/06 04:20:57;;;;;;;6.57;4.10;;;;;;;8.17;92.87;102206.81;4973335;28;20129;-70
2022/09/06 04:23:23;;;;;;;;;;;;;;;8.27;91.75;102224.59;4956463;28;20065;-70
2022/09/06 04:25:52;;;;;;;4.63;3.40;;;;;;;7.99;91.96;102166.53;4973624;28;20021;-71
2022/09/06 04:28:19;;;;;;;4.27;3.10;;;;;;;8.28;91.02;102209.50;4973324;28;20125;-74
2022/09/06 04:30:54;;;;;;;4.70;3.47;;;;;;;8.44;90.43;102210.13;4973887;28;20500;-75
2022/09/06 04:33:24;;;;;;;4.57;3.67;;;;;;;8.37;89.89;102191.13;4973853;28;20409;-73
2022/09/06 04:35:51;;;;;;;6.87;3.87;;;;;;;8.53;89.82;102203.28;4973358;28;20477;-72
2022/09/06 04:38:17;;;;;;;3.87;3.40;;;;;;;8.53;88.79;102203.28;4973103;28;20453;-71
2022/09/06 04:40:42;;;;;;;3.53;2.73;;;;;;;8.45;88.95;102195.03;4973716;28;20508;-74
2022/09/06 04:43:07;;;;;;;5.10;3.13;;;;;;;8.39;88.97;102191.03;4973916;28;20050;-71
2022/09/06 04:45:33;;;;;;;5.33;3.93;;;;;;;8.35;89.27;102201.00;4972598;28;20493;-71
2022/09/06 04:47:58;;;;;;;9.20;3.63;;;;;;;8.25;89.74;102177.88;4956043;28;20512;-69
2022/09/06 04:50:24;;;;;;;4.20;2.90;;;;;;;8.39;90.40;102201.66;4973225;28;20437;-72
2022/09/06 04:52:49;;;;;;;3.93;3.47;;;;;;;8.45;90.39;102195.03;4973044;28;20043;-72
2022/09/06 04:55:15;;;;;;;4.63;3.17;;;;;;;8.55;90.94;102198.69;4973102;28;20042;-73
2022/09/06 04:57:40;;;;;;;3.93;3.10;;;;;;;8.59;90.56;102177.09;4974580;28;20038;-75
2022/09/06 05:00:06;;;;;;;6.23;4.43;;;;;;;8.72;90.16;102182.34;4973166;28;20558;-73
2022/09/06 05:02:32;;;;;;;4.93;2.93;;;;;;;8.78;89.31;102181.88;4972984;28;20418;-72
2022/09/06 05:04:57;;;;;;;3.20;2.80;;;;;;;8.78;89.18;102179.22;4972980;28;20035;-72
2022/09/06 05:07:24;;;;;;;6.60;4.30;;;;;;;8.86;89.51;102182.13;4972960;28;20059;-72
2022/09/06 05:09:50;;;;;;;4.53;2.97;;;;;;;8.42;88.46;102105.00;4973255;28;20043;-72
2022/09/06 05:12:16;;;;;;;3.87;2.83;;;;;;;8.84;88.96;102177.91;4973281;28;20035;-75
2022/09/06 05:14:41;;;;;;;5.30;3.40;;;;;;;8.66;89.56;102129.66;4973194;28;20057;-72
2022/09/06 05:17:07;;;;;;;5.87;3.10;;;;;;;8.61;89.20;102127.38;4972682;28;20122;-72
2022/09/06 05:19:32;;;;;;;3.87;2.73;;;;;;;8.79;88.60;102164.97;4972755;28;20517;-72
2022/09/06 05:21:58;;;;;;;5.23;3.83;;;;;;;8.80;88.56;102177.28;4955707;28;20042;-70
2022/09/06 05:24:23;;;;;;;4.70;3.63;;;;;;;8.87;88.41;102175.84;4976213;28;20049;-72
2022/09/06 05:26:49;;;;;;;8.73;5.40;;;;;;;8.91;87.70;102164.03;4976148;28;20030;-72
2022/09/06 05:29:14;;;;;;;7.63;4.70;;;;;;;9.10;87.21;102183.88;4976600;28;20050;-72
2022/09/06 05:31:40;;;;;;;4.40;3.63;;;;;;;9.09;86.38;102168.91;4977086;28;20047;-72
2022/09/06 05:34:05;;;;;;;4.70;3.50;;;;;;;9.16;86.22;102165.63;4977061;28;20139;-75
2022/09/06 05:36:31;;;;;;;4.47;3.43;;;;;;;9.12;86.15;102158.88;4993228;28;20084;-70
2022/09/06 05:38:57;;;;;;;4.73;3.33;;;;;;;9.16;85.42;102164.78;4983986;28;20046;-72
2022/09/06 05:41:24;;;;;;;6.87;4.43;;;;;;;9.24;86.35;102183.66;4981248;28;20043;-73
2022/09/06 05:43:49;;;;;;;12.10;4.03;;;;;;;9.26;86.63;102173.78;4978971;28;20077;-71
2022/09/06 05:46:16;;;;;;;5.37;4.10;;;;;;;9.20;85.15;102160.94;4991004;28;20042;-71
2022/09/06 05:48:42;;;;;;;6.27;3.53;;;;;;;9.29;86.14;102168.22;4962426;28;20063;-71
2022/09/06 05:51:12;;;;;;;5.43;3.47;;;;;;;9.32;85.33;102168.81;4989098;28;20085;-70
2022/09/06 05:53:43;;;;;;;8.53;3.87;;;;;;;9.36;86.26;102163.25;4993316;28;20096;-73
2022/09/06 05:56:10;;;;;;;6.03;4.20;;;;;;;9.37;85.96;102143.66;4991108;28;20039;-71
2022/09/06 05:58:37;;;;;;;9.20;3.90;;;;;;;9.64;86.47;102160.09;4971780;28;20131;-72
2022/09/06 06:01:17;;;;;;;8.00;4.40;;;;;;;9.84;85.16;102169.16;4977206;28;20401;-71
2022/09/06 06:03:50;;;;;;;8.53;4.27;;;;;;;9.76;84.54;102147.63;4975626;28;20486;-71
2022/09/06 06:06:15;;;;;;;8.87;3.50;;;;;;;9.87;84.62;102166.25;4975318;28;20054;-71
2022/09/06 06:08:42;;;;;;;5.20;4.00;;;;;;;9.82;84.41;102149.78;4976024;28;20055;-74
2022/09/06 06:11:07;;;;;;;11.27;4.70;;;;;;;9.87;85.18;102158.25;4975513;28;20043;-73
2022/09/06 06:13:38;;;;;;;9.87;4.17;;;;;;;9.88;83.81;102157.28;4958133;28;20513;-72
2022/09/06 06:16:07;;;;;;;7.07;3.47;;;;;;;9.94;84.62;102152.31;4976914;28;20085;-72
2022/09/06 06:18:32;;;;;;;16.23;4.67;;;;;;;10.00;84.10;102158.94;4975356;28;20031;-73
2022/09/06 06:21:22;;;;;;;9.30;3.73;;;;;;;10.04;84.10;102157.72;4942167;28;20127;-72
2022/09/06 06:23:55;;;;;;;6.30;2.93;;;;;;;9.97;83.42;102142.38;4975441;28;20129;-73
2022/09/06 06:26:21;;;;;;;7.80;3.00;;;;;;;10.03;82.97;102156.03;4975340;28;20057;-72
2022/09/06 06:28:47;;;;;;;3.43;3.13;;;;;;;9.75;82.83;102100.69;4975039;28;20039;-72
2022/09/06 06:31:14;;;;;;;4.53;2.70;;;;;;;10.07;82.29;102135.31;4976163;28;20046;-74
2022/09/06 06:33:40;;;;;;;5.57;3.33;;;;;;;10.11;82.69;102136.75;4975275;28;20051;-73
2022/09/06 06:36:12;;;;;;;3.63;3.30;;;;;;;10.23;81.61;102135.78;4975121;28;20042;-72
2022/09/06 06:38:39;;;;;;;5.33;3.07;;;;;;;10.33;81.89;102141.19;4975005;28;20497;-73
2022/09/06 06:41:06;;;;;;;11.20;4.10;;;;;;;10.44;81.87;102133.19;4975134;28;20035;-71
2022/09/06 06:43:35;;;;;;;4.67;2.50;;;;;;;10.60;81.83;102138.88;4975032;28;20039;-72
2022/09/06 06:46:05;;;;;;;5.07;3.05;;;;;;;10.73;80.23;102139.56;4943004;28;20038;-73
2022/09/06 06:48:31;;;;;;;7.27;3.00;;;;;;;10.75;79.38;102137.59;4975069;28;20047;-73
2022/09/06 06:50:57;;;;;;;9.77;4.47;;;;;;;10.74;79.25;102130.59;4975087;28;20042;-73
2022/09/06 06:53:23;;;;;;;15.03;4.50;;;;;;;10.70;78.62;102113.19;4957809;28;20129;-73
2022/09/06 06:55:48;;;;;;;7.47;3.60;;;;;;;10.85;78.22;102125.19;4975977;28;20117;-72
2022/09/06 06:58:15;;;;;;;4.37;3.53;;;;;;;10.86;78.63;102118.03;4958399;28;20035;-73
2022/09/06 07:00:41;;;;;;;4.60;3.00;;;;;;;10.78;77.87;102099.19;4975762;28;20089;-72
2022/09/06 07:03:08;;;;;;;5.27;3.30;;;;;;;10.86;78.02;102108.22;4975618;28;20084;-72
2022/09/06 07:05:35;;;;;;;6.57;3.23;;;;;;;10.94;77.20;102099.53;4957175;28;20422;-74
2022/09/06 07:08:01;;;;;;;8.80;3.73;;;;;;;11.07;77.72;102115.34;4974456;28;20045;-72
2022/09/06 07:10:27;;;;;;;9.27;3.30;;;;;;;11.17;77.74;102121.56;4974156;28;20042;-72
2022/09/06 07:12:53;;;;;;;5.77;2.70;;;;;;;11.22;76.68;102131.81;4974170;28;20030;-73
2022/09/06 07:15:19;;;;;;;7.70;3.93;;;;;;;11.28;75.98;102121.47;4974324;28;20067;-73
2022/09/06 07:17:44;;;;;;;4.83;2.87;;;;;;;11.27;75.82;102111.75;4975734;28;20122;-72
2022/09/06 07:20:10;;;;;;;4.90;3.00;;;;;;;11.27;74.85;102111.75;4974309;28;20090;-73
2022/09/06 07:22:37;;;;;;;4.20;3.37;;;;;;;11.36;75.32;102120.81;4957144;28;20030;-74
2022/09/06 07:25:04;;;;;;;4.63;2.43;;;;;;;11.45;74.62;102110.16;4974380;28;20109;-72
2022/09/06 07:27:29;;;;;;;3.97;3.53;;;;;;;11.43;74.75;102090.78;4956725;28;20035;-72
2022/09/06 07:29:55;;;;;;;3.73;2.73;;;;;;;11.53;73.22;102097.97;4956752;28;20531;-72
2022/09/06 07:32:20;;;;;;;3.33;2.50;;;;;;;11.36;73.50;102073.63;4975128;28;20502;-73
2022/09/06 07:34:46;;;;;;;3.83;2.40;;;;;;;11.49;72.51;102095.56;4973935;28;20054;-73
2022/09/06 07:37:11;;;;;;;4.20;2.17;;;;;;;11.51;72.69;102099.91;4973775;28;20514;-71
2022/09/06 07:39:37;;;;;;;4.57;2.50;;;;;;;11.44;71.94;102102.28;4973782;28;20117;-73
2022/09/06 07:42:03;;;;;;;5.20;2.67;;;;;;;11.35;73.17;102095.97;4973621;28;20445;-72
2022/09/06 07:44:29;;;;;;;4.83;2.23;;;;;;;11.41;70.90;102108.75;4973724;28;20027;-71
2022/09/06 07:46:54;;;;;;;2.80;2.60;;;;;;;11.24;71.06;102101.38;4956710;28;20398;-70
2022/09/06 07:49:23;;;;;;;3.07;1.90;;;;;;;11.18;71.26;102091.25;4974092;28;20151;-72
2022/09/06 07:51:48;;;;;;;6.35;2.00;;;;;;;11.21;71.60;102080.31;4973982;28;20066;-73
2022/09/06 07:54:14;;;;;;;8.07;2.53;;;;;;;11.26;71.55;102101.22;4973465;28;20502;-72
2022/09/06 07:56:40;;;;;;;2.77;2.33;;;;;;;11.22;72.01;102090.00;4974300;28;20093;-72
2022/09/06 07:59:05;;;;;;;4.60;2.30;;;;;;;11.11;70.23;102080.28;4973581;28;20037;-71
2022/09/06 08:01:33;;;;;;;7.63;3.53;;;;;;;11.10;71.37;102083.94;4973636;28;20039;-74
2022/09/06 08:04:11;;;;;;;5.32;2.40;;;;;;;11.16;72.38;102074.53;4975834;28;20125;-73
2022/09/06 08:06:43;;;;;;;3.72;2.08;;;;;;;11.27;70.37;102085.09;4973328;28;20501;-73
2022/09/06 08:09:09;;;;;;;4.60;2.07;;;;;;;11.38;68.41;102079.69;4973360;28;20053;-74
2022/09/06 08:11:36;;;;;;;2.40;2.20;;;;;;;11.46;65.04;102079.84;4973472;28;20046;-72
2022/09/06 08:14:04;;;;;;;3.20;2.23;;;;;;;11.59;65.98;102062.75;4973392;28;20382;-74
2022/09/06 08:16:30;;;;;;;6.75;2.72;;;;;;;11.66;62.23;102064.72;4973224;28;20061;-73
2022/09/06 08:19:01;;;;;;;5.53;2.87;;;;;;;11.77;61.87;102063.75;4974053;28;20038;-71
2022/09/06 08:21:30;;;;;;;3.43;2.10;;;;;;;12.01;60.33;102074.06;4973460;28;20045;-74
2022/09/06 08:23:58;;;;;;;5.07;2.20;;;;;;;12.15;59.51;102044.28;4973132;28;20041;-74
2022/09/06 08:26:26;;;;;;;2.13;1.90;;;;;;;12.52;59.46;102051.53;4973353;28;20039;-74
2022/09/06 08:28:56;;;;;;;15.63;2.43;;;;;;;12.71;59.69;102054.97;4973345;28;20461;-74
2022/09/06 08:31:22;;;;;;;4.20;2.03;;;;;;;12.63;58.99;102060.22;4973263;28;20069;-72
2022/09/06 08:33:49;;;;;;;5.00;2.10;;;;;;;12.66;58.93;102056.41;4974460;28;20383;-72
2022/09/06 08:36:15;;;;;;;2.70;2.07;;;;;;;12.74;57.86;102056.56;4973062;28;20043;-73
2022/09/06 08:38:40;;;;;;;2.10;1.90;;;;;;;12.68;57.66;102033.88;4973192;28;20409;-73
2022/09/06 08:41:28;;;;;;;3.80;2.00;;;;;;;12.87;56.54;102058.88;4973491;28;20074;-73
2022/09/06 08:43:58;;;;;;;4.83;1.60;;;;;;;12.71;54.34;102046.97;4972976;28;20082;-71
2022/09/06 08:46:32;;;;;;;4.97;1.40;;;;;;;12.78;55.97;102051.75;4973077;28;20507;-72
2022/09/06 08:48:58;;;;;;;6.90;2.10;;;;;;;12.78;55.63;102041.06;4974753;28;20043;-71
2022/09/06 08:51:43;;;;;;;3.13;1.67;;;;;;;12.91;55.94;102037.06;4975103;28;20135;-73
2022/09/06 08:54:53;;;;;;;5.03;2.40;;;;;;;13.00;56.48;102041.50;4973404;28;20093;-72
2022/09/06 08:57:19;;;;;;;9.10;2.87;;;;;;;13.03;55.97;102045.75;4974009;28;20101;-72
2022/09/06 08:59:44;;;;;;;7.53;2.10;;;;;;;12.83;54.81;102015.56;4976780;28;20481;-73
2022/09/06 09:02:20;;;;;;;10.67;2.97;;;;;;;12.77;55.99;102018.00;4976700;28;20436;-72
2022/09/06 09:04:54;;;;;;;5.50;1.70;;;;;;;12.49;56.31;102033.97;4977321;28;20034;-73
2022/09/06 09:07:25;;;;;;;3.77;2.00;;;;;;;12.30;57.44;102029.50;4976468;28;20046;-74
2022/09/06 09:09:56;;;;;;;1.73;1.50;;;;;;;12.26;58.66;102025.41;4977766;28;20034;-74
2022/09/06 09:12:47;;;;;;;2.93;1.83;;;;;;;12.24;58.99;102023.88;4977280;28;20136;-70
2022/09/06 09:15:18;;;;;;;6.73;1.70;;;;;;;12.17;59.17;102012.09;4977085;28;20190;-72
2022/09/06 09:17:45;;;;;;;2.27;1.97;;;;;;;12.18;58.52;101995.91;4976841;28;20035;-73
2022/09/06 09:20:11;;;;;;;6.03;2.27;;;;;;;12.46;59.30;102012.88;4959531;28;20039;-71
2022/09/06 09:22:39;;;;;;;3.07;1.30;;;;;;;12.38;59.02;101975.34;4976543;28;20569;-72
2022/09/06 09:25:07;;;;;;;4.80;1.77;;;;;;;12.60;60.01;101991.03;4976584;28;20031;-73
2022/09/06 09:27:33;;;;;;;4.28;2.20;;;;;;;12.71;59.76;101993.50;4976416;28;20517;-71
2022/09/06 09:30:02;;;;;;;15.73;3.00;;;;;;;12.75;59.76;101982.53;4976169;28;20121;-72
2022/09/06 09:32:38;;;;;;;2.27;1.97;;;;;;;12.96;58.08;101997.34;4976037;28;20062;-73
2022/09/06 09:35:28;;;;;;;4.37;1.70;;;;;;;12.79;57.72;101989.28;4977106;28;20038;-72
2022/09/06 09:38:07;;;;;;;2.03;1.60;;;;;;;12.61;57.13;101965.97;4976067;28;20042;-72
2022/09/06 09:40:53;;;;;;;6.53;1.60;;;;;;;12.79;56.32;101989.28;4976101;28;20034;-72
2022/09/06 09:43:24;;;;;;;7.90;1.80;;;;;;;12.72;56.36;101967.63;4978460;28;20509;-73
2022/09/06 09:46:10;;;;;;;3.37;1.50;;;;;;;12.97;57.66;101996.34;4980307;28;20061;-71
2022/09/06 09:48:36;;;;;;;4.10;1.90;;;;;;;12.81;57.53;101960.56;4984649;28;20139;-73
2022/09/06 09:51:18;;;;;;;8.23;1.47;;;;;;;12.89;58.29;101974.03;4978681;28;20078;-71
2022/09/06 09:53:55;;;;;;;9.60;2.10;;;;;;;12.83;58.86;101974.63;4981491;28;20482;-71
2022/09/06 09:56:45;;;;;;;3.60;1.83;;;;;;;12.51;59.81;101933.13;4981184;28;20070;-72
2022/09/06 09:59:40;;;;;;;3.33;1.60;;;;;;;12.68;59.97;101977.75;4980862;28;20133;-72
2022/09/06 10:02:29;;;;;;;3.77;1.70;;;;;;;12.53;61.47;101952.53;4980680;28;20026;-73
2022/09/06 10:05:21;;;;;;;3.37;1.83;;;;;;;12.58;61.64;101949.41;4980782;28;20034;-70
2022/09/06 10:07:52;;;;;;;4.40;2.00;;;;;;;12.45;61.00;101946.22;4970061;28;20102;-72
2022/09/06 10:10:23;;;;;;;4.93;3.73;;;;;;;12.56;62.07;101946.88;4975828;28;20105;-72
2022/09/06 10:13:08;;;;;;;2.67;1.90;;;;;;;12.71;61.93;101934.69;4975422;28;20038;-72
2022/09/06 10:15:36;;;;;;;2.90;1.73;;;;;;;12.77;62.21;101940.47;4975346;28;20035;-71
2022/09/06 10:18:03;;;;;;;2.83;1.40;;;;;;;12.67;62.62;101905.75;4975419;28;20090;-73
2022/09/06 10:20:46;;;;;;;2.40;1.40;;;;;;;12.88;62.18;101942.94;4958250;28;20125;-73
2022/09/06 10:23:19;;;;;;;10.73;4.10;;;;;;;12.75;63.01;101934.44;4975274;28;20521;-72
2022/09/06 10:25:51;;;;;;;2.73;1.77;;;;;;;12.69;63.38;101912.63;4958027;28;20414;-72
2022/09/06 10:28:53;;;;;;;8.33;2.13;;;;;;;12.87;63.81;101917.19;4975329;28;20042;-72
2022/09/06 10:31:32;;;;;;;4.13;1.87;;;;;;;13.06;63.84;101922.44;4943855;28;20046;-72
2022/09/06 10:34:06;;;;;;;4.40;1.98;;;;;;;13.23;63.16;101918.94;4975135;28;20482;-71
2022/09/06 10:36:44;;;;;;;4.07;1.83;;;;;;;13.24;63.15;101909.94;4975299;28;20041;-72
2022/09/06 10:39:28;;;;;;;5.65;1.60;;;;;;;13.37;62.82;101906.06;4974882;28;20045;-74
2022/09/06 10:42:23;;;;;;;6.07;1.80;;;;;;;13.55;62.86;101906.88;4975243;28;20038;-71
2022/09/06 10:45:20;;;;;;;6.87;1.93;;;;;;;13.54;62.75;101908.69;4977695;28;20083;-71
2022/09/06 10:48:08;;;;;;;9.53;1.97;;;;;;;13.40;62.97;101878.97;4976314;28;20367;-72
2022/09/06 10:51:00;;;;;;;3.47;1.67;;;;;;;13.49;62.89;101886.06;4974799;28;20062;-72
2022/09/06 10:53:26;;;;;;;6.90;2.00;;;;;;;13.43;63.35;101884.88;4975664;28;20046;-72
2022/09/06 10:56:07;;;;;;;3.77;2.50;;;;;;;13.51;64.41;101884.09;4974328;28;20117;-73
2022/09/06 10:58:44;;;;;;;1.90;1.63;;;;;;;13.51;64.96;101884.09;4957100;28;20434;-72
2022/09/06 11:01:20;;;;;;;3.37;2.03;;;;;;;13.53;65.80;101880.25;4975286;28;20481;-72
2022/09/06 11:03:49;;;;;;;1.93;1.70;;;;;;;13.61;65.39;101874.16;4978052;28;20498;-73
2022/09/06 11:06:18;;;;;;;6.70;2.13;;;;;;;13.69;65.00;101882.25;4977192;28;20454;-72
2022/09/06 11:08:56;;;;;;;4.20;1.67;;;;;;;13.42;65.08;101848.41;4974267;28;20043;-72
2022/09/06 11:11:34;;;;;;;10.60;2.27;;;;;;;13.43;65.24;101858.09;4957165;28;20532;-72
2022/09/06 11:14:10;;;;;;;9.40;1.80;;;;;;;13.44;66.16;101866.97;4974369;28;20039;-72
2022/09/06 11:17:03;;;;;;;5.00;1.63;;;;;;;13.43;66.44;101854.59;4974451;28;20039;-72
2022/09/06 11:19:37;;;;;;;4.63;1.53;;;;;;;13.40;67.37;101844.19;4975150;28;20521;-72
2022/09/06 11:22:16;;;;;;;2.63;1.40;;;;;;;13.46;67.89;101841.75;4974211;28;20027;-71
2022/09/06 11:24:56;;;;;;;6.47;1.83;;;;;;;13.79;68.54;101848.16;4975359;28;20094;-73
2022/09/06 11:27:35;;;;;;;2.70;1.43;;;;;;;14.01;67.66;101837.94;4974473;28;20050;-71
2022/09/06 11:30:01;;;;;;;;;;;;;;;14.13;66.99;101848.19;4957606;28;20046;-73
2022/09/06 11:32:38;;;;;;;3.45;1.77;;;;;;;13.83;67.83;101836.13;4974385;28;19924;-72
2022/09/06 11:35:10;;;;;;;3.53;1.80;;;;;;;13.67;68.06;101830.69;4972859;28;20046;-75
2022/09/06 11:37:38;;;;;;;5.50;2.07;;;;;;;13.72;68.58;101844.44;4956582;28;20034;-73
2022/09/06 11:40:12;;;;;;;5.45;2.22;;;;;;;13.63;69.84;101838.19;4975423;28;20035;-72
2022/09/06 11:42:44;;;;;;;4.83;2.00;;;;;;;13.59;69.46;101844.88;4973967;28;20065;-72
2022/09/06 11:45:09;;;;;;;9.73;2.00;;;;;;;13.46;70.58;101827.50;4973789;28;20034;-72
2022/09/06 11:47:41;;;;;;;3.20;1.77;;;;;;;13.29;70.72;101827.38;4956768;28;20050;-72
2022/09/06 11:50:27;;;;;;;4.83;2.03;;;;;;;13.32;70.76;101832.44;4959451;28;20039;-73
2022/09/06 11:53:05;;;;;;;3.40;2.37;;;;;;;13.30;70.33;101831.75;4974412;28;20070;-72
2022/09/06 11:55:43;;;;;;;6.03;2.88;;;;;;;13.25;71.18;101826.00;4974407;28;20046;-71
2022/09/06 11:58:17;;;;;;;11.60;2.77;;;;;;;13.32;71.07;101815.56;4973688;28;20034;-73
2022/09/06 12:00:45;;;;;;;4.27;1.93;;;;;;;13.58;70.52;101826.25;4973837;28;20490;-74
2022/09/06 12:03:48;;;;;;;7.83;1.93;;;;;;;13.51;69.39;101818.03;4973756;28;20034;-74
2022/09/06 12:06:33;;;;;;;6.27;2.03;;;;;;;13.40;70.61;101809.41;4939939;28;20149;-72
2022/09/06 12:08:59;;;;;;;4.23;1.90;;;;;;;13.51;70.54;101804.63;4974621;28;20572;-72
2022/09/06 12:11:33;;;;;;;2.40;1.93;;;;;;;13.69;70.85;101811.78;4940659;28;20070;-73
2022/09/06 12:14:30;;;;;;;6.63;1.90;;;;;;;13.73;70.12;101803.28;4973802;28;20066;-74
2022/09/06 12:17:03;;;;;;;10.70;3.93;;;;;;;13.67;70.13;101798.56;4956394;28;20066;-73
2022/09/06 12:19:48;;;;;;;5.40;1.47;;;;;;;13.50;70.57;101780.72;4974653;28;20123;-73
2022/09/06 12:22:29;;;;;;;5.77;2.17;;;;;;;13.56;71.40;101785.44;4956773;28;20050;-72
2022/09/06 12:24:59;;;;;;;2.50;1.83;;;;;;;13.28;71.76;101776.69;4974743;28;20039;-72
2022/09/06 12:27:33;;;;;;;2.57;1.80;;;;;;;13.30;71.52;101780.94;4973654;28;20490;-72
2022/09/06 12:30:11;;;;;;;17.33;2.83;;;;;;;13.15;72.28;101771.72;4973565;28;20545;-72
2022/09/06 12:32:42;;;;;;;4.60;1.87;;;;;;;13.30;72.97;101775.56;4976455;28;20038;-74
2022/09/06 12:35:26;;;;;;;6.00;1.83;;;;;;;13.37;72.01;101758.91;4977514;28;20109;-74
2022/09/06 12:38:03;;;;;;;3.27;2.10;;;;;;;13.42;72.15;101751.22;4977394;28;20034;-73
2022/09/06 12:40:36;;;;;;;7.07;2.47;;;;;;;13.55;72.08;101763.19;4978785;28;20092;-73
2022/09/06 12:43:04;;;;;;;7.27;2.13;;;;;;;13.42;72.15;101762.78;4977541;28;20043;-72
2022/09/06 12:45:29;;;;;;;2.83;1.83;;;;;;;13.44;71.98;101786.69;4977543;28;20039;-72
2022/09/06 12:48:10;;;;;;;6.13;2.23;;;;;;;13.40;72.75;101747.88;4977463;28;20034;-73
2022/09/06 12:50:37;;;;;;;7.03;2.07;;;;;;;13.44;73.19;101765.28;4977545;28;20157;-74
2022/09/06 12:53:20;;;;;;;3.50;2.07;;;;;;;13.48;73.53;101739.88;4977447;28;20101;-73
2022/09/06 12:55:45;;;;;;;5.93;1.60;;;;;;;13.51;72.25;101750.28;4978402;28;20094;-71
2022/09/06 12:58:11;;;;;;;4.80;1.67;;;;;;;13.37;72.42;101724.94;4960023;28;20173;-75
2022/09/06 13:00:56;;;;;;;10.60;2.33;;;;;;;13.39;73.13;101732.81;4959473;28;20494;-74
2022/09/06 13:03:57;;;;;;;3.60;2.17;;;;;;;13.29;73.20;101749.78;4977310;28;20077;-72
2022/09/06 13:06:28;;;;;;;7.50;2.23;;;;;;;13.24;73.43;101752.09;4944699;28;20532;-72
2022/09/06 13:08:56;;;;;;;12.53;2.77;;;;;;;13.06;73.70;101727.19;4977031;28;20516;-71
2022/09/06 13:11:28;;;;;;;10.50;2.40;;;;;;;13.02;74.34;101736.53;4960362;28;20039;-73
2022/09/06 13:13:54;;;;;;;6.23;2.87;;;;;;;12.95;75.07;101728.25;4959617;28;20653;-72
2022/09/06 13:16:25;;;;;;;3.10;2.03;;;;;;;12.90;75.67;101741.25;4977148;28;20058;-73
2022/09/06 13:18:52;;;;;;;7.60;2.10;;;;;;;12.87;76.26;101728.22;4975097;28;20047;-73
2022/09/06 13:21:29;;;;;;;3.60;2.20;;;;;;;12.87;76.37;101711.31;4973010;28;20039;-73
2022/09/06 13:23:57;;;;;;;3.40;1.70;;;;;;;12.96;76.95;101708.56;4975885;28;20058;-72
2022/09/06 13:26:37;;;;;;;10.68;2.55;;;;;;;12.94;77.20;101717.72;4977580;28;20034;-73
2022/09/06 13:29:29;;;;;;;3.87;1.90;;;;;;;13.06;77.88;101711.16;4976489;28;20046;-75
2022/09/06 13:31:56;;;;;;;3.10;1.80;;;;;;;13.05;78.11;101712.16;4976666;28;20078;-72
2022/09/06 13:34:30;;;;;;;5.47;1.90;;;;;;;13.01;78.70;101694.75;4977792;28;20038;-74
2022/09/06 13:37:02;;;;;;;3.47;1.70;;;;;;;12.99;77.34;101694.03;4977167;28;20445;-73
2022/09/06 13:39:32;;;;;;;9.37;2.67;;;;;;;12.96;77.16;101692.50;4976962;28;20051;-74
2022/09/06 13:42:06;;;;;;;5.20;1.80;;;;;;;13.07;78.87;101703.97;4979043;28;20039;-72
2022/09/06 13:44:37;;;;;;;6.03;2.40;;;;;;;13.04;78.46;101694.44;4977134;28;20046;-74
2022/09/06 13:47:04;;;;;;;6.13;2.10;;;;;;;13.04;78.37;101686.41;4977929;28;20466;-71
2022/09/06 13:49:30;;;;;;;2.13;1.93;;;;;;;13.05;78.64;101693.44;4977368;28;20030;-73
2022/09/06 13:52:01;;;;;;;2.53;2.23;;;;;;;13.03;79.07;101698.94;4977119;28;20047;-79
2022/09/06 13:54:28;;;;;;;7.03;1.73;;;;;;;12.98;79.00;101705.72;4959678;28;20414;-74
2022/09/06 13:56:54;;;;;;;1.73;1.50;;;;;;;12.91;79.25;101683.28;4979957;28;20046;-74
2022/09/06 13:59:20;;;;;;;2.77;1.77;;;;;;;12.90;79.30;101695.81;4958682;28;20045;-76
2022/09/06 14:01:53;;;;;;;3.90;2.20;;;;;;;12.91;79.59;101685.97;4975819;28;20045;-81
2022/09/06 14:04:20;;;;;;;4.63;2.20;;;;;;;12.94;79.59;101680.28;4978013;28;20064;-80
2022/09/06 14:06:47;;;;;;;5.37;2.13;;;;;;;12.73;79.79;101664.63;4940491;29;20087;-77
2022/09/06 14:09:13;;;;;;;12.63;4.20;;;;;;;12.56;80.12;101642.25;4962695;28;20039;-71
2022/09/06 14:11:39;;;;;;;5.73;2.33;;;;;;;12.49;80.11;101635.84;4978167;28;20066;-72
2022/09/06 14:14:04;;;;;;;11.23;3.40;;;;;;;12.69;80.38;101666.72;4976017;28;20039;-73
2022/09/06 14:16:30;;;;;;;5.03;1.93;;;;;;;12.66;80.61;101669.72;4975572;28;20133;-74
2022/09/06 14:18:57;;;;;;;6.53;2.00;;;;;;;12.67;80.68;101676.72;4958258;28;20042;-74
2022/09/06 14:21:22;;;;;;;3.30;2.80;;;;;;;12.57;80.60;101665.31;4975210;28;20049;-71
2022/09/06 14:23:51;;;;;;;4.70;2.00;;;;;;;12.58;80.70;101675.00;4975603;28;20043;-72
2022/09/06 14:26:19;;;;;;;5.03;1.93;;;;;;;12.57;80.47;101672.47;4975286;28;20548;-69
2022/09/06 14:28:45;;;;;;;4.43;1.65;;;;;;;12.56;80.69;101657.44;4976196;28;20046;-74
2022/09/06 14:31:19;;;;;;;7.93;2.17;;;;;;;12.51;80.82;101655.22;4976615;28;20042;-76
2022/09/06 14:33:45;;;;;;;2.30;2.10;;;;;;;12.40;80.44;101648.28;4976078;28;20027;-73
2022/09/06 14:36:13;;;;;;;3.93;2.07;;;;;;;12.50;81.28;101660.72;4958580;28;20038;-75
2022/09/06 14:38:40;;;;;;;4.18;2.30;;;;;;;12.52;80.94;101658.75;4961111;28;20126;-74
2022/09/06 14:41:07;;;;;;;4.27;1.90;;;;;;;12.52;80.87;101651.56;4976566;28;20095;-74
2022/09/06 14:43:35;;;;;;;5.33;2.40;;;;;;;12.44;81.19;101643.50;4982529;28;20047;-70
2022/09/06 14:46:05;;;;;;;2.55;1.75;;;;;;;12.43;81.51;101643.63;4985118;28;20047;-74
2022/09/06 14:48:32;;;;;;;3.37;1.77;;;;;;;12.40;81.52;101658.13;4980304;28;20046;-73
2022/09/06 14:50:58;;;;;;;3.13;2.00;;;;;;;12.36;81.99;101641.56;4977666;28;20031;-72
2022/09/06 14:53:27;;;;;;;3.63;2.30;;;;;;;12.41;81.99;101649.94;4978540;28;20038;-71
2022/09/06 14:56:00;;;;;;;4.70;3.20;;;;;;;12.37;82.22;101637.06;4973988;28;20041;-73
2022/09/06 14:58:26;;;;;;;3.63;2.17;;;;;;;12.40;81.96;101642.94;4974799;28;20030;-76
2022/09/06 15:00:51;;;;;;;2.97;1.93;;;;;;;12.37;82.47;101642.41;4974126;28;20045;-72
2022/09/06 15:03:16;;;;;;;5.70;1.50;;;;;;;12.23;82.39;101624.25;4983905;28;20058;-73
2022/09/06 15:05:43;;;;;;;2.17;1.50;;;;;;;12.27;82.60;101636.31;4967866;28;20457;-71
2022/09/06 15:08:13;;;;;;;2.47;1.70;;;;;;;12.15;82.61;101605.50;4993378;28;20121;-74
2022/09/06 15:10:38;;;;;;;4.27;2.30;;;;;;;12.25;82.62;101623.09;4975899;28;20117;-72
2022/09/06 15:13:04;;;;;;;2.23;1.80;;;;;;;12.24;82.40;101628.59;4975026;28;20096;-73
2022/09/06 15:15:29;;;;;;;3.90;1.90;;;;;;;12.22;82.40;101611.88;4974695;28;20121;-74
2022/09/06 15:17:55;;;;;;;2.67;1.97;;;;;;;12.07;82.35;101617.75;4974722;28;20121;-73
2022/09/06 15:20:21;;;;;;;2.83;1.83;;;;;;;11.76;82.70;101552.31;4974427;28;20042;-76
2022/09/06 15:22:48;;;;;;;2.13;1.93;;;;;;;12.04;82.93;101596.69;4973123;28;20363;-72
2022/09/06 15:25:14;;;;;;;2.33;2.07;;;;;;;12.02;82.72;101601.34;4974072;28;20034;-74
2022/09/06 15:27:39;;;;;;;4.67;2.20;;;;;;;12.11;83.12;101602.25;4988914;28;20126;-74
2022/09/06 15:30:05;;;;;;;6.00;2.20;;;;;;;12.12;82.72;101603.94;4957955;28;20521;-74
2022/09/06 15:32:30;;;;;;;2.80;1.93;;;;;;;12.10;82.75;101606.75;4974105;28;20403;-73
2022/09/06 15:34:56;;;;;;;4.53;1.77;;;;;;;12.09;82.94;101609.56;4973894;28;20031;-73
2022/09/06 15:37:21;;;;;;;4.03;2.10;;;;;;;12.07;83.67;101607.06;4956485;28;20033;-71
2022/09/06 15:39:47;;;;;;;2.13;1.93;;;;;;;11.95;83.67;101573.59;4973817;28;20383;-72
2022/09/06 15:42:12;;;;;;;3.87;2.10;;;;;;;11.93;83.90;101575.56;4973826;28;20043;-72
2022/09/06 15:44:38;;;;;;;4.33;2.13;;;;;;;11.94;84.61;101574.56;4957133;28;20082;-70
2022/09/06 15:47:04;;;;;;;4.23;2.17;;;;;;;11.86;84.31;101557.66;4973941;28;20118;-77